sensor_id;sensor_type;location;lat;lon;timestamp;pressure;altitude;pressure_sealevel;temperature;humidity
58955;BME280;45815;52.334;5.024;2024-03-22T00:02:15;102064.97;;;11.36;100.00
58955;BME280;45815;52.334;5.024;2024-03-22T00:04:40;102067.50;;;11.33;100.00
58955;BME280;45815;52.334;5.024;2024-03-22T00:07:06;102063.03;;;11.31;100.00
58955;BME280;45815;52.334;5.024;2024-03-22T00:09:31;102060.50;;;11.34;100.00
58955;BME280;45815;52.334;5.024;2024-03-22T00:11:57;102049.09;;;11.33;100.00
58955;BME280;45815;52.334;5.024;2024-03-22T00:14:22;102056.19;;;11.36;100.00
58955;BME280;45815;52.334;5.024;2024-03-22T00:16:48;102043.06;;;11.37;100.00
58955;BME280;45815;52.334;5.024;2024-03-22T00:19:13;102044.81;;;11.37;100.00
58955;BME280;45815;52.334;5.024;2024-03-22T00:21:39;102038.72;;;11.38;100.00
58955;BME280;45815;52.334;5.024;2024-03-22T00:24:04;102027.38;;;11.39;100.00
58955;BME280;45815;52.334;5.024;2024-03-22T00:26:29;102024.63;;;11.36;100.00
58955;BME280;45815;52.334;5.024;2024-03-22T00:28:55;102010.53;;;11.34;100.00
58955;BME280;45815;52.334;5.024;2024-03-22T00:31:23;102009.53;;;11.30;100.00
58955;BME280;45815;52.334;5.024;2024-03-22T00:33:48;102012.13;;;11.29;100.00
58955;BME280;45815;52.334;5.024;2024-03-22T00:36:14;101999.09;;;11.32;100.00
58955;BME280;45815;52.334;5.024;2024-03-22T00:38:39;101999.81;;;11.28;100.00
58955;BME280;45815;52.334;5.024;2024-03-22T00:41:04;101992.66;;;11.24;100.00
58955;BME280;45815;52.334;5.024;2024-03-22T00:43:30;101999.72;;;11.25;100.00
58955;BME280;45815;52.334;5.024;2024-03-22T00:45:55;102001.22;;;11.18;100.00
58955;BME280;45815;52.334;5.024;2024-03-22T00:48:21;102002.19;;;11.20;100.00
58955;BME280;45815;52.334;5.024;2024-03-22T00:50:46;102002.91;;;11.16;100.00
58955;BME280;45815;52.334;5.024;2024-03-22T00:53:12;102009.81;;;11.12;100.00
58955;BME280;45815;52.334;5.024;2024-03-22T00:55:37;102006.22;;;11.10;100.00
58955;BME280;45815;52.334;5.024;2024-03-22T00:58:03;101996.69;;;11.14;100.00
58955;BME280;45815;52.334;5.024;2024-03-22T01:00:29;102011.56;;;11.13;100.00
58955;BME280;45815;52.334;5.024;2024-03-22T01:02:54;102007.28;;;11.15;100.00
58955;BME280;45815;52.334;5.024;2024-03-22T01:05:19;101965.28;;;10.93;100.00
58955;BME280;45815;52.334;5.024;2024-03-22T01:07:45;101994.97;;;11.14;100.00
58955;BME280;45815;52.334;5.024;2024-03-22T01:10:11;101982.50;;;11.09;100.00
58955;BME280;45815;52.334;5.024;2024-03-22T01:12:37;101983.28;;;11.06;100.00
58955;BME280;45815;52.334;5.024;2024-03-22T01:15:04;101997.47;;;11.11;100.00
58955;BME280;45815;52.334;5.024;2024-03-22T01:17:30;101985.91;;;11.06;100.00
58955;BME280;45815;52.334;5.024;2024-03-22T01:19:55;101993.56;;;11.00;100.00
58955;BME280;45815;52.334;5.024;2024-03-22T01:22:21;101987.53;;;11.03;100.00
58955;BME280;45815;52.334;5.024;2024-03-22T01:24:46;101986.66;;;11.02;100.00
58955;BME280;45815;52.334;5.024;2024-03-22T01:27:12;101983.06;;;11.00;100.00
58955;BME280;45815;52.334;5.024;2024-03-22T01:29:38;101995.16;;;10.95;100.00
58955;BME280;45815;52.334;5.024;2024-03-22T01:32:03;101984.59;;;10.93;100.00
58955;BME280;45815;52.334;5.024;2024-03-22T01:34:29;101967.44;;;10.79;100.00
58955;BME280;45815;52.334;5.024;2024-03-22T01:36:55;101975.53;;;10.85;100.00
58955;BME280;45815;52.334;5.024;2024-03-22T01:39:21;101978.50;;;10.94;100.00
58955;BME280;45815;52.334;5.024;2024-03-22T01:41:50;101981.06;;;10.93;100.00
58955;BME280;45815;52.334;5.024;2024-03-22T01:44:17;101981.13;;;10.94;100.00
58955;BME280;45815;52.334;5.024;2024-03-22T01:46:44;101974.13;;;10.95;100.00
58955;BME280;45815;52.334;5.024;2024-03-22T01:49:11;101973.00;;;10.88;100.00
58955;BME280;45815;52.334;5.024;2024-03-22T01:51:41;101970.34;;;10.87;100.00
58955;BME280;45815;52.334;5.024;2024-03-22T01:54:09;101972.03;;;10.85;100.00
58955;BME280;45815;52.334;5.024;2024-03-22T01:56:37;101964.63;;;10.74;100.00
58955;BME280;45815;52.334;5.024;2024-03-22T01:59:04;101972.66;;;10.77;100.00
58955;BME280;45815;52.334;5.024;2024-03-22T02:01:30;101970.22;;;10.84;100.00
58955;BME280;45815;52.334;5.024;2024-03-22T02:03:55;101965.81;;;10.83;100.00
58955;BME280;45815;52.334;5.024;2024-03-22T02:06:21;101964.09;;;10.83;100.00
58955;BME280;45815;52.334;5.024;2024-03-22T02:08:46;101958.78;;;10.82;100.00
58955;BME280;45815;52.334;5.024;2024-03-22T02:11:12;101959.63;;;10.81;100.00
58955;BME280;45815;52.334;5.024;2024-03-22T02:13:37;101953.47;;;10.80;100.00
58955;BME280;45815;52.334;5.024;2024-03-22T02:16:03;101924.34;;;10.74;100.00
58955;BME280;45815;52.334;5.024;2024-03-22T02:18:29;101934.22;;;10.80;100.00
58955;BME280;45815;52.334;5.024;2024-03-22T02:20:55;101934.06;;;10.76;100.00
58955;BME280;45815;52.334;5.024;2024-03-22T02:23:33;101923.47;;;10.73;100.00
58955;BME280;45815;52.334;5.024;2024-03-22T02:26:00;101921.97;;;10.80;100.00
58955;BME280;45815;52.334;5.024;2024-03-22T02:28:25;101918.31;;;10.76;100.00
58955;BME280;45815;52.334;5.024;2024-03-22T02:30:51;101920.06;;;10.76;100.00
58955;BME280;45815;52.334;5.024;2024-03-22T02:33:16;101919.97;;;10.73;100.00
58955;BME280;45815;52.334;5.024;2024-03-22T02:35:42;101907.66;;;10.72;100.00
58955;BME280;45815;52.334;5.024;2024-03-22T02:38:07;101897.13;;;10.70;100.00
58955;BME280;45815;52.334;5.024;2024-03-22T02:40:33;101890.91;;;10.68;100.00
58955;BME280;45815;52.334;5.024;2024-03-22T02:42:58;101883.84;;;10.67;100.00
58955;BME280;45815;52.334;5.024;2024-03-22T02:45:24;101890.81;;;10.65;100.00
58955;BME280;45815;52.334;5.024;2024-03-22T02:47:50;101875.06;;;10.65;100.00
58955;BME280;45815;52.334;5.024;2024-03-22T02:50:15;101879.47;;;10.66;100.00
58955;BME280;45815;52.334;5.024;2024-03-22T02:52:41;101875.06;;;10.65;100.00
58955;BME280;45815;52.334;5.024;2024-03-22T02:55:06;101860.97;;;10.63;100.00
58955;BME280;45815;52.334;5.024;2024-03-22T02:57:33;101861.78;;;10.62;100.00
58955;BME280;45815;52.334;5.024;2024-03-22T03:00:00;101851.91;;;10.55;100.00
58955;BME280;45815;52.334;5.024;2024-03-22T03:02:25;101862.34;;;10.53;100.00
58955;BME280;45815;52.334;5.024;2024-03-22T03:04:51;101843.72;;;10.46;100.00
58955;BME280;45815;52.334;5.024;2024-03-22T03:07:16;101849.28;;;10.55;100.00
58955;BME280;45815;52.334;5.024;2024-03-22T03:09:42;101846.66;;;10.55;100.00
58955;BME280;45815;52.334;5.024;2024-03-22T03:12:07;101838.69;;;10.52;100.00
58955;BME280;45815;52.334;5.024;2024-03-22T03:14:33;101838.69;;;10.52;100.00
58955;BME280;45815;52.334;5.024;2024-03-22T03:16:58;101841.22;;;10.49;100.00
58955;BME280;45815;52.334;5.024;2024-03-22T03:19:23;101831.72;;;10.52;100.00
58955;BME280;45815;52.334;5.024;2024-03-22T03:21:49;101828.22;;;10.53;100.00
58955;BME280;45815;52.334;5.024;2024-03-22T03:24:14;101829.78;;;10.47;100.00
58955;BME280;45815;52.334;5.024;2024-03-22T03:26:39;101821.91;;;10.47;100.00
58955;BME280;45815;52.334;5.024;2024-03-22T03:29:05;101818.31;;;10.45;100.00
58955;BME280;45815;52.334;5.024;2024-03-22T03:31:30;101816.41;;;10.41;100.00
58955;BME280;45815;52.334;5.024;2024-03-22T03:33:56;101812.06;;;10.41;100.00
58955;BME280;45815;52.334;5.024;2024-03-22T03:36:21;101805.13;;;10.43;100.00
58955;BME280;45815;52.334;5.024;2024-03-22T03:38:47;101813.91;;;10.44;100.00
58955;BME280;45815;52.334;5.024;2024-03-22T03:41:12;101816.53;;;10.44;100.00
58955;BME280;45815;52.334;5.024;2024-03-22T03:43:37;101818.34;;;10.46;100.00
58955;BME280;45815;52.334;5.024;2024-03-22T03:46:03;101807.09;;;10.49;100.00
58955;BME280;45815;52.334;5.024;2024-03-22T03:48:28;101811.41;;;10.47;100.00
58955;BME280;45815;52.334;5.024;2024-03-22T03:50:54;101813.06;;;10.45;100.00
58955;BME280;45815;52.334;5.024;2024-03-22T03:53:21;101801.69;;;10.44;100.00
58955;BME280;45815;52.334;5.024;2024-03-22T03:55:46;101798.22;;;10.45;100.00
58955;BME280;45815;52.334;5.024;2024-03-22T03:58:12;101786.84;;;10.46;100.00
58955;BME280;45815;52.334;5.024;2024-03-22T04:00:37;101798.13;;;10.42;100.00
58955;BME280;45815;52.334;5.024;2024-03-22T04:03:03;101793.66;;;10.40;100.00
58955;BME280;45815;52.334;5.024;2024-03-22T04:05:28;101800.56;;;10.38;100.00
58955;BME280;45815;52.334;5.024;2024-03-22T04:07:53;101800.56;;;10.38;100.00
58955;BME280;45815;52.334;5.024;2024-03-22T04:10:19;101807.50;;;10.35;100.00
58955;BME280;45815;52.334;5.024;2024-03-22T04:12:44;101808.28;;;10.33;100.00
58955;BME280;45815;52.334;5.024;2024-03-22T04:15:10;101805.50;;;10.28;100.00
58955;BME280;45815;52.334;5.024;2024-03-22T04:17:36;101791.66;;;10.32;100.00
58955;BME280;45815;52.334;5.024;2024-03-22T04:20:02;101801.97;;;10.28;100.00
58955;BME280;45815;52.334;5.024;2024-03-22T04:22:29;101795.88;;;10.29;100.00
58955;BME280;45815;52.334;5.024;2024-03-22T04:24:54;101798.56;;;10.30;100.00
58955;BME280;45815;52.334;5.024;2024-03-22T04:27:20;101785.56;;;10.33;100.00
58955;BME280;45815;52.334;5.024;2024-03-22T04:29:49;101795.19;;;10.34;100.00
58955;BME280;45815;52.334;5.024;2024-03-22T04:32:14;101786.50;;;10.35;100.00
58955;BME280;45815;52.334;5.024;2024-03-22T04:34:43;101785.63;;;10.35;100.00
58955;BME280;45815;52.334;5.024;2024-03-22T04:37:08;101798.84;;;10.38;100.00
58955;BME280;45815;52.334;5.024;2024-03-22T04:39:34;101796.22;;;10.38;100.00
58955;BME280;45815;52.334;5.024;2024-03-22T04:42:00;101799.41;;;10.29;100.00
58955;BME280;45815;52.334;5.024;2024-03-22T04:44:25;101785.25;;;10.26;100.00
58955;BME280;45815;52.334;5.024;2024-03-22T04:46:51;101788.19;;;10.33;100.00
58955;BME280;45815;52.334;5.024;2024-03-22T04:49:16;101794.28;;;10.32;100.00
58955;BME280;45815;52.334;5.024;2024-03-22T04:51:42;101798.41;;;10.27;100.00
58955;BME280;45815;52.334;5.024;2024-03-22T04:54:07;101797.72;;;10.31;100.00
58955;BME280;45815;52.334;5.024;2024-03-22T04:56:32;101795.09;;;10.31;100.00
58955;BME280;45815;52.334;5.024;2024-03-22T04:58:58;101791.53;;;10.29;100.00
58955;BME280;45815;52.334;5.024;2024-03-22T05:01:23;101786.50;;;10.35;100.00
58955;BME280;45815;52.334;5.024;2024-03-22T05:03:49;101782.06;;;10.34;100.00
58955;BME280;45815;52.334;5.024;2024-03-22T05:06:15;101769.53;;;10.27;100.00
58955;BME280;45815;52.334;5.024;2024-03-22T05:08:40;101782.03;;;10.33;100.00
58955;BME280;45815;52.334;5.024;2024-03-22T05:11:07;101779.69;;;10.41;100.00
58955;BME280;45815;52.334;5.024;2024-03-22T05:13:32;101773.56;;;10.42;100.00
58955;BME280;45815;52.334;5.024;2024-03-22T05:15:58;101767.41;;;10.40;100.00
58955;BME280;45815;52.334;5.024;2024-03-22T05:18:23;101772.81;;;10.44;100.00
58955;BME280;45815;52.334;5.024;2024-03-22T05:20:49;101768.38;;;10.43;100.00
58955;BME280;45815;52.334;5.024;2024-03-22T05:23:14;101766.72;;;10.45;100.00
58955;BME280;45815;52.334;5.024;2024-03-22T05:25:42;101766.81;;;10.48;100.00
58955;BME280;45815;52.334;5.024;2024-03-22T05:28:07;101766.03;;;10.51;100.00
58955;BME280;45815;52.334;5.024;2024-03-22T05:30:33;101772.84;;;10.46;100.00
58955;BME280;45815;52.334;5.024;2024-03-22T05:32:58;101757.22;;;10.49;100.00
58955;BME280;45815;52.334;5.024;2024-03-22T05:35:24;101760.69;;;10.48;100.00
58955;BME280;45815;52.334;5.024;2024-03-22T05:37:50;101750.09;;;10.45;100.00
58955;BME280;45815;52.334;5.024;2024-03-22T05:40:16;101749.44;;;10.52;100.00
58955;BME280;45815;52.334;5.024;2024-03-22T05:42:42;101745.16;;;10.54;100.00
58955;BME280;45815;52.334;5.024;2024-03-22T05:45:08;101744.34;;;10.56;100.00
58955;BME280;45815;52.334;5.024;2024-03-22T05:47:34;101738.88;;;10.50;100.00
58955;BME280;45815;52.334;5.024;2024-03-22T05:50:00;101741.56;;;10.52;100.00
58955;BME280;45815;52.334;5.024;2024-03-22T05:52:25;101741.75;;;10.58;100.00
58955;BME280;45815;52.334;5.024;2024-03-22T05:54:51;101738.31;;;10.59;100.00
58955;BME280;45815;52.334;5.024;2024-03-22T05:57:16;101731.25;;;10.58;100.00
58955;BME280;45815;52.334;5.024;2024-03-22T05:59:42;101740.00;;;10.57;100.00
58955;BME280;45815;52.334;5.024;2024-03-22T06:02:07;101729.28;;;10.51;100.00
58955;BME280;45815;52.334;5.024;2024-03-22T06:04:33;101734.94;;;10.63;100.00
58955;BME280;45815;52.334;5.024;2024-03-22T06:07:00;101728.03;;;10.65;100.00
58955;BME280;45815;52.334;5.024;2024-03-22T06:09:28;101738.41;;;10.62;100.00
58955;BME280;45815;52.334;5.024;2024-03-22T06:12:03;101729.59;;;10.60;100.00
58955;BME280;45815;52.334;5.024;2024-03-22T06:14:29;101719.94;;;10.59;100.00
58955;BME280;45815;52.334;5.024;2024-03-22T06:16:54;101734.09;;;10.64;100.00
58955;BME280;45815;52.334;5.024;2024-03-22T06:19:20;101732.34;;;10.65;100.00
58955;BME280;45815;52.334;5.024;2024-03-22T06:21:45;101722.78;;;10.65;100.00
58955;BME280;45815;52.334;5.024;2024-03-22T06:24:10;101727.41;;;10.74;100.00
58955;BME280;45815;52.334;5.024;2024-03-22T06:26:36;101722.16;;;10.74;100.00
58955;BME280;45815;52.334;5.024;2024-03-22T06:29:01;101723.16;;;10.77;100.00
58955;BME280;45815;52.334;5.024;2024-03-22T06:31:27;101732.00;;;10.80;100.00
58955;BME280;45815;52.334;5.024;2024-03-22T06:33:53;101719.50;;;10.72;100.00
58955;BME280;45815;52.334;5.024;2024-03-22T06:36:18;101730.84;;;10.71;100.00
58955;BME280;45815;52.334;5.024;2024-03-22T06:38:44;101728.22;;;10.71;100.00
58955;BME280;45815;52.334;5.024;2024-03-22T06:41:09;101724.84;;;10.75;100.00
58955;BME280;45815;52.334;5.024;2024-03-22T06:43:34;101728.28;;;10.74;100.00
58955;BME280;45815;52.334;5.024;2024-03-22T06:46:00;101721.38;;;10.76;100.00
58955;BME280;45815;52.334;5.024;2024-03-22T06:48:25;101725.81;;;10.79;100.00
58955;BME280;45815;52.334;5.024;2024-03-22T06:50:50;101727.72;;;10.83;100.00
58955;BME280;45815;52.334;5.024;2024-03-22T06:53:16;101721.66;;;10.86;100.00
58955;BME280;45815;52.334;5.024;2024-03-22T06:55:41;101730.41;;;10.85;100.00
58955;BME280;45815;52.334;5.024;2024-03-22T06:58:06;101728.81;;;10.90;100.00
58955;BME280;45815;52.334;5.024;2024-03-22T07:00:32;101715.88;;;10.96;100.00
58955;BME280;45815;52.334;5.024;2024-03-22T07:03:01;101718.50;;;10.96;100.00
58955;BME280;45815;52.334;5.024;2024-03-22T07:05:27;101721.88;;;10.92;100.00
58955;BME280;45815;52.334;5.024;2024-03-22T07:07:53;101716.63;;;10.92;100.00
58955;BME280;45815;52.334;5.024;2024-03-22T07:10:21;101723.56;;;10.90;100.00
58955;BME280;45815;52.334;5.024;2024-03-22T07:12:47;101719.31;;;10.93;100.00
58955;BME280;45815;52.334;5.024;2024-03-22T07:15:13;101723.63;;;10.93;100.00
58955;BME280;45815;52.334;5.024;2024-03-22T07:17:38;101712.34;;;10.95;100.00
58955;BME280;45815;52.334;5.024;2024-03-22T07:20:04;101721.97;;;10.95;100.00
58955;BME280;45815;52.334;5.024;2024-03-22T07:22:30;101707.88;;;10.93;100.00
58955;BME280;45815;52.334;5.024;2024-03-22T07:24:55;101711.28;;;10.89;100.00
58955;BME280;45815;52.334;5.024;2024-03-22T07:27:20;101725.06;;;10.82;100.00
58955;BME280;45815;52.334;5.024;2024-03-22T07:29:46;101718.09;;;10.84;100.00
58955;BME280;45815;52.334;5.024;2024-03-22T07:32:11;101728.41;;;10.77;100.00
58955;BME280;45815;52.334;5.024;2024-03-22T07:34:36;101729.78;;;10.66;100.00
58955;BME280;45815;52.334;5.024;2024-03-22T07:37:02;101714.44;;;10.78;100.00
58955;BME280;45815;52.334;5.024;2024-03-22T07:39:29;101709.66;;;10.65;100.00
58955;BME280;45815;52.334;5.024;2024-03-22T07:41:54;101726.53;;;10.73;100.00
58955;BME280;45815;52.334;5.024;2024-03-22T07:44:20;101719.38;;;10.69;100.00
58955;BME280;45815;52.334;5.024;2024-03-22T07:46:46;101727.97;;;10.64;100.00
58955;BME280;45815;52.334;5.024;2024-03-22T07:49:14;101728.94;;;10.67;100.00
58955;BME280;45815;52.334;5.024;2024-03-22T07:51:39;101728.69;;;10.60;100.00
58955;BME280;45815;52.334;5.024;2024-03-22T07:54:05;101731.38;;;10.61;100.00
58955;BME280;45815;52.334;5.024;2024-03-22T07:56:32;101725.34;;;10.64;100.00
58955;BME280;45815;52.334;5.024;2024-03-22T07:58:57;101732.19;;;10.59;100.00
58955;BME280;45815;52.334;5.024;2024-03-22T08:01:23;101724.25;;;10.57;100.00
58955;BME280;45815;52.334;5.024;2024-03-22T08:03:49;101729.44;;;10.55;100.00
58955;BME280;45815;52.334;5.024;2024-03-22T08:06:15;101727.28;;;10.44;100.00
58955;BME280;45815;52.334;5.024;2024-03-22T08:08:40;101743.31;;;10.51;100.00
58955;BME280;45815;52.334;5.024;2024-03-22T08:11:06;101729.41;;;10.54;100.00
58955;BME280;45815;52.334;5.024;2024-03-22T08:13:31;101740.09;;;10.60;100.00
58955;BME280;45815;52.334;5.024;2024-03-22T08:15:56;101741.75;;;10.58;100.00
58955;BME280;45815;52.334;5.024;2024-03-22T08:18:22;101748.72;;;10.56;100.00
58955;BME280;45815;52.334;5.024;2024-03-22T08:20:47;101744.84;;;10.45;100.00
58955;BME280;45815;52.334;5.024;2024-03-22T08:23:12;101744.84;;;10.45;100.00
58955;BME280;45815;52.334;5.024;2024-03-22T08:25:38;101743.03;;;10.44;100.00
58955;BME280;45815;52.334;5.024;2024-03-22T08:28:04;101746.56;;;10.44;100.00
58955;BME280;45815;52.334;5.024;2024-03-22T08:30:29;101748.19;;;10.41;100.00
58955;BME280;45815;52.334;5.024;2024-03-22T08:32:54;101742.16;;;10.43;100.00
58955;BME280;45815;52.334;5.024;2024-03-22T08:35:20;101744.09;;;10.49;100.00
58955;BME280;45815;52.334;5.024;2024-03-22T08:37:45;101748.28;;;10.44;100.00
58955;BME280;45815;52.334;5.024;2024-03-22T08:40:11;101742.00;;;10.39;100.00
58955;BME280;45815;52.334;5.024;2024-03-22T08:42:37;101743.03;;;10.44;100.00
58955;BME280;45815;52.334;5.024;2024-03-22T08:45:04;101746.66;;;10.47;100.00
58955;BME280;45815;52.334;5.024;2024-03-22T08:47:30;101738.88;;;10.50;100.00
58955;BME280;45815;52.334;5.024;2024-03-22T08:49:56;101733.72;;;10.53;100.00
58955;BME280;45815;52.334;5.024;2024-03-22T08:52:23;101730.97;;;10.49;100.00
58955;BME280;45815;52.334;5.024;2024-03-22T08:54:50;101734.66;;;10.54;100.00
58955;BME280;45815;52.334;5.024;2024-03-22T08:57:15;101737.16;;;10.51;100.00
58955;BME280;45815;52.334;5.024;2024-03-22T08:59:41;101733.53;;;10.47;100.00
58955;BME280;45815;52.334;5.024;2024-03-22T09:02:06;101733.59;;;10.49;100.00
58955;BME280;45815;52.334;5.024;2024-03-22T09:04:31;101738.97;;;10.53;100.00
58955;BME280;45815;52.334;5.024;2024-03-22T09:06:57;101736.47;;;10.56;100.00
58955;BME280;45815;52.334;5.024;2024-03-22T09:09:23;101738.97;;;10.53;100.00
58955;BME280;45815;52.334;5.024;2024-03-22T09:11:49;101734.66;;;10.54;100.00
58955;BME280;45815;52.334;5.024;2024-03-22T09:14:14;101733.59;;;10.49;100.00
58955;BME280;45815;52.334;5.024;2024-03-22T09:16:39;101739.69;;;10.48;100.00
58955;BME280;45815;52.334;5.024;2024-03-22T09:19:05;101735.53;;;10.54;100.00
58955;BME280;45815;52.334;5.024;2024-03-22T09:21:31;101727.59;;;10.53;100.00
58955;BME280;45815;52.334;5.024;2024-03-22T09:23:57;101729.28;;;10.51;100.00
58955;BME280;45815;52.334;5.024;2024-03-22T09:26:22;101726.00;;;10.58;100.00
58955;BME280;45815;52.334;5.024;2024-03-22T09:28:48;101724.44;;;10.63;100.00
58955;BME280;45815;52.334;5.024;2024-03-22T09:31:16;101723.66;;;10.66;100.00
58955;BME280;45815;52.334;5.024;2024-03-22T09:33:42;101722.78;;;10.65;100.00
58955;BME280;45815;52.334;5.024;2024-03-22T09:36:07;101726.22;;;10.64;100.00
58955;BME280;45815;52.334;5.024;2024-03-22T09:38:33;101722.78;;;10.65;100.00
58955;BME280;45815;52.334;5.024;2024-03-22T09:40:58;101730.50;;;10.61;100.00
58955;BME280;45815;52.334;5.024;2024-03-22T09:43:29;101725.81;;;10.52;100.00
58955;BME280;45815;52.334;5.024;2024-03-22T09:45:55;101726.63;;;10.49;100.00
58955;BME280;45815;52.334;5.024;2024-03-22T09:48:22;101721.56;;;10.55;100.00
58955;BME280;45815;52.334;5.024;2024-03-22T09:50:48;101730.34;;;10.56;100.00
58955;BME280;45815;52.334;5.024;2024-03-22T09:53:21;101728.53;;;10.55;100.00
58955;BME280;45815;52.334;5.024;2024-03-22T09:55:50;101721.91;;;10.66;100.00
58955;BME280;45815;52.334;5.024;2024-03-22T09:58:17;101712.28;;;10.65;100.00
58955;BME280;45815;52.334;5.024;2024-03-22T10:00:43;101714.19;;;10.71;100.00
58955;BME280;45815;52.334;5.024;2024-03-22T10:03:10;101712.38;;;10.68;100.00
58955;BME280;45815;52.334;5.024;2024-03-22T10:05:35;101711.56;;;10.71;100.00
58955;BME280;45815;52.334;5.024;2024-03-22T10:08:01;101712.69;;;10.79;100.00
58955;BME280;45815;52.334;5.024;2024-03-22T10:10:27;101707.59;;;10.84;100.00
58955;BME280;45815;52.334;5.024;2024-03-22T10:12:53;101707.50;;;10.81;100.00
58955;BME280;45815;52.334;5.024;2024-03-22T10:15:19;101707.28;;;10.74;100.00
58955;BME280;45815;52.334;5.024;2024-03-22T10:17:45;101696.41;;;10.62;100.00
58955;BME280;45815;52.334;5.024;2024-03-22T10:20:13;101717.91;;;10.77;100.00
58955;BME280;45815;52.334;5.024;2024-03-22T10:23:02;101713.47;;;10.75;100.00
58955;BME280;45815;52.334;5.024;2024-03-22T10:25:28;101718.00;;;10.81;100.00
58955;BME280;45815;52.334;5.024;2024-03-22T10:27:54;101719.69;;;10.78;100.00
58955;BME280;45815;52.334;5.024;2024-03-22T10:30:22;101719.38;;;10.69;100.00
58955;BME280;45815;52.334;5.024;2024-03-22T10:32:50;101707.69;;;10.60;100.00
58955;BME280;45815;52.334;5.024;2024-03-22T10:35:16;101716.81;;;10.71;100.00
58955;BME280;45815;52.334;5.024;2024-03-22T10:37:42;101706.31;;;10.71;100.00
58955;BME280;45815;52.334;5.024;2024-03-22T10:40:08;101707.84;;;10.64;100.00
58955;BME280;45815;52.334;5.024;2024-03-22T10:42:35;101715.22;;;10.76;100.00
58955;BME280;45815;52.334;5.024;2024-03-22T10:45:02;101703.31;;;10.60;100.00
58955;BME280;45815;52.334;5.024;2024-03-22T10:47:29;101713.19;;;10.67;100.00
58955;BME280;45815;52.334;5.024;2024-03-22T10:50:06;101718.50;;;10.69;100.00
58955;BME280;45815;52.334;5.024;2024-03-22T10:55:04;101694.81;;;10.67;100.00
58955;BME280;45815;52.334;5.024;2024-03-22T10:57:32;101711.63;;;10.72;100.00
58955;BME280;45815;52.334;5.024;2024-03-22T11:00:08;101710.97;;;10.80;100.00
58955;BME280;45815;52.334;5.024;2024-03-22T11:02:36;101701.28;;;10.77;100.00
58955;BME280;45815;52.334;5.024;2024-03-22T11:05:03;101701.84;;;10.68;100.00
58955;BME280;45815;52.334;5.024;2024-03-22T11:07:30;101704.63;;;10.73;100.00
58955;BME280;45815;52.334;5.024;2024-03-22T11:09:57;101692.94;;;10.63;100.00
58955;BME280;45815;52.334;5.024;2024-03-22T11:12:27;101701.28;;;10.77;100.00
58955;BME280;45815;52.334;5.024;2024-03-22T11:14:53;101705.72;;;10.80;100.00
58955;BME280;45815;52.334;5.024;2024-03-22T11:17:19;101702.31;;;10.82;100.00
58955;BME280;45815;52.334;5.024;2024-03-22T11:19:44;101704.97;;;10.84;100.00
58955;BME280;45815;52.334;5.024;2024-03-22T11:22:10;101686.50;;;10.81;100.00
58955;BME280;45815;52.334;5.024;2024-03-22T11:24:39;101697.28;;;10.90;100.00
58955;BME280;45815;52.334;5.024;2024-03-22T11:27:05;101689.47;;;10.91;100.00
58955;BME280;45815;52.334;5.024;2024-03-22T11:29:30;101689.50;;;10.93;100.00
58955;BME280;45815;52.334;5.024;2024-03-22T11:31:56;101681.59;;;10.93;100.00
58955;BME280;45815;52.334;5.024;2024-03-22T11:34:21;101684.28;;;10.94;100.00
58955;BME280;45815;52.334;5.024;2024-03-22T11:36:47;101691.38;;;10.97;100.00
58955;BME280;45815;52.334;5.024;2024-03-22T11:39:14;101685.09;;;10.92;100.00
58955;BME280;45815;52.334;5.024;2024-03-22T11:41:39;101681.53;;;10.90;100.00
58955;BME280;45815;52.334;5.024;2024-03-22T11:44:05;101676.13;;;10.85;100.00
58955;BME280;45815;52.334;5.024;2024-03-22T11:46:31;101679.75;;;10.89;100.00
58955;BME280;45815;52.334;5.024;2024-03-22T11:48:56;101678.66;;;10.82;100.00
58955;BME280;45815;52.334;5.024;2024-03-22T11:51:23;101679.63;;;10.86;100.00
58955;BME280;45815;52.334;5.024;2024-03-22T11:53:52;101677.13;;;10.89;100.00
58955;BME280;45815;52.334;5.024;2024-03-22T11:56:20;101685.97;;;10.92;100.00
58955;BME280;45815;52.334;5.024;2024-03-22T11:58:49;101687.94;;;10.99;100.00
58955;BME280;45815;52.334;5.024;2024-03-22T12:01:17;101686.06;;;10.95;100.00
58955;BME280;45815;52.334;5.024;2024-03-22T12:03:46;101683.59;;;11.00;100.00
58955;BME280;45815;52.334;5.024;2024-03-22T12:06:12;101674.88;;;11.01;100.00
58955;BME280;45815;52.334;5.024;2024-03-22T12:08:38;101669.69;;;11.04;100.00
58955;BME280;45815;52.334;5.024;2024-03-22T12:11:07;101657.88;;;10.90;100.00
58955;BME280;45815;52.334;5.024;2024-03-22T12:13:33;101662.56;;;11.00;100.00
58955;BME280;45815;52.334;5.024;2024-03-22T12:15:58;101650.63;;;11.10;100.00
58955;BME280;45815;52.334;5.024;2024-03-22T12:18:24;101652.97;;;11.01;100.00
58955;BME280;45815;52.334;5.024;2024-03-22T12:20:49;101646.13;;;11.06;100.00
58955;BME280;45815;52.334;5.024;2024-03-22T12:23:14;101641.75;;;11.06;100.00
58955;BME280;45815;52.334;5.024;2024-03-22T12:25:40;101646.13;;;11.06;100.00
58955;BME280;45815;52.334;5.024;2024-03-22T12:28:05;101643.50;;;11.07;100.00
58955;BME280;45815;52.334;5.024;2024-03-22T12:30:31;101644.47;;;11.09;100.00
58955;BME280;45815;52.334;5.024;2024-03-22T12:32:57;101646.28;;;11.12;100.00
58955;BME280;45815;52.334;5.024;2024-03-22T12:35:22;101641.28;;;11.21;100.00
58955;BME280;45815;52.334;5.024;2024-03-22T12:37:47;101641.28;;;11.21;100.00